Time;durP1;ratioP1;P1;durP2;ratioP2;P2;SDS_P1;SDS_P2;PMS_P1;PMS_P2;Temp;Humidity;BMP_temperature;BMP_pressure;BME280_temperature;BME280_humidity;BME280_pressure;Samples;Min_cycle;Max_cycle;Signal;HPM_P1;HPM_P2
2021/08/13 00:01:02;;;;;;;1.50;0.93;;;20.00;98.20;;;;;;5003110;28;20480;-80
2021/08/13 00:03:29;;;;;;;1.50;0.90;;;20.00;98.20;;;;;;5021858;28;20830;-80
2021/08/13 00:05:56;;;;;;;1.50;1.00;;;20.00;98.20;;;;;;5006711;28;20467;-80
2021/08/13 00:08:23;;;;;;;1.50;0.90;;;19.90;98.20;;;;;;5016197;28;20993;-80
2021/08/13 00:10:50;;;;;;;1.50;0.90;;;19.90;98.20;;;;;;5019023;28;20497;-79
2021/08/13 00:13:18;;;;;;;1.57;1.07;;;19.90;98.20;;;;;;5021342;28;20468;-80
2021/08/13 00:15:44;;;;;;;1.50;0.90;;;19.90;98.20;;;;;;5027860;28;20459;-79
2021/08/13 00:18:13;;;;;;;1.50;0.90;;;19.90;98.20;;;;;;4995473;28;20487;-79
2021/08/13 00:20:40;;;;;;;1.50;0.90;;;19.90;98.20;;;;;;5018587;28;20490;-80
2021/08/13 00:23:07;;;;;;;1.50;1.00;;;19.90;98.20;;;;;;5017538;28;20529;-80
2021/08/13 00:25:34;;;;;;;1.50;1.00;;;19.80;98.20;;;;;;5021023;28;20851;-79
2021/08/13 00:28:01;;;;;;;1.50;0.97;;;19.80;98.20;;;;;;5010282;28;20577;-80
2021/08/13 00:30:27;;;;;;;1.50;0.90;;;19.80;98.20;;;;;;5019013;28;21146;-79
2021/08/13 00:32:54;;;;;;;1.50;0.90;;;19.80;98.20;;;;;;5009270;28;20516;-79
2021/08/13 00:35:22;;;;;;;1.50;1.00;;;19.80;98.20;;;;;;5023050;28;20463;-80
2021/08/13 00:37:49;;;;;;;1.50;0.90;;;19.80;98.20;;;;;;5009859;28;20479;-79
2021/08/13 00:40:16;;;;;;;1.50;1.00;;;19.80;98.20;;;;;;5024231;28;20499;-80
2021/08/13 00:42:43;;;;;;;1.50;1.00;;;19.80;98.20;;;;;;5016476;28;20501;-79
2021/08/13 00:45:10;;;;;;;1.50;0.90;;;19.80;98.20;;;;;;5029561;28;20463;-80
2021/08/13 00:47:37;;;;;;;1.50;0.90;;;19.80;98.20;;;;;;4997217;28;20484;-79
2021/08/13 00:50:05;;;;;;;1.50;0.90;;;19.80;98.20;;;;;;5019807;28;20488;-80
2021/08/13 00:52:33;;;;;;;1.50;0.90;;;19.80;98.20;;;;;;5016662;28;21001;-80
2021/08/13 00:55:00;;;;;;;1.50;0.90;;;19.80;98.20;;;;;;5014937;28;20955;-79
2021/08/13 00:57:27;;;;;;;1.50;0.90;;;19.80;98.20;;;;;;5008259;28;20486;-81
2021/08/13 00:59:54;;;;;;;1.50;0.90;;;19.80;98.20;;;;;;5017211;28;20979;-80
2021/08/13 01:02:21;;;;;;;1.50;0.90;;;19.80;98.20;;;;;;5003536;28;20905;-80
2021/08/13 01:04:48;;;;;;;1.80;1.27;;;19.80;98.20;;;;;;5022505;28;20833;-80
2021/08/13 01:07:14;;;;;;;1.53;1.00;;;19.90;98.20;;;;;;5008087;28;20490;-80
2021/08/13 01:09:43;;;;;;;1.50;0.90;;;19.90;98.20;;;;;;5017289;28;20461;-79
2021/08/13 01:12:22;;;;;;;1.50;0.90;;;19.80;98.20;;;;;;5003751;28;20686;-81
2021/08/13 01:15:01;;;;;;;1.50;0.97;;;19.80;98.20;;;;;;5019593;28;20521;-80
2021/08/13 01:17:34;;;;;;;1.50;0.93;;;19.80;98.20;;;;;;5007063;28;20478;-79
2021/08/13 01:20:11;;;;;;;1.50;1.00;;;19.80;98.20;;;;;;5019349;28;20900;-80
2021/08/13 01:22:45;;;;;;;1.50;0.97;;;19.80;98.20;;;;;;4996394;28;20541;-79
2021/08/13 01:25:19;;;;;;;1.50;0.97;;;19.70;98.20;;;;;;5017033;28;20464;-80
2021/08/13 01:27:48;;;;;;;1.57;1.00;;;19.70;98.20;;;;;;5010425;28;20730;-80
2021/08/13 01:30:17;;;;;;;1.50;0.97;;;19.70;98.20;;;;;;5021659;28;20484;-80
2021/08/13 01:32:50;;;;;;;1.50;1.00;;;19.70;98.20;;;;;;5015098;28;20494;-80
2021/08/13 01:35:21;;;;;;;1.50;1.00;;;19.70;98.20;;;;;;5014675;28;20490;-80
2021/08/13 01:37:51;;;;;;;1.50;1.00;;;19.70;98.20;;;;;;4993623;28;20476;-80
2021/08/13 01:40:19;;;;;;;1.50;1.00;;;19.70;98.20;;;;;;5028879;28;20495;-80
2021/08/13 01:42:48;;;;;;;1.50;0.90;;;19.60;98.20;;;;;;5013913;28;20691;-80
2021/08/13 01:45:19;;;;;;;1.50;0.90;;;19.60;98.20;;;;;;5028430;28;20455;-80
2021/08/13 01:47:49;;;;;;;1.50;0.90;;;19.60;98.20;;;;;;4996273;28;20485;-80
2021/08/13 01:50:16;;;;;;;1.50;0.90;;;19.60;98.20;;;;;;5022569;28;20486;-81
2021/08/13 01:52:43;;;;;;;1.50;0.90;;;19.60;98.20;;;;;;5007083;28;21034;-80
2021/08/13 01:55:11;;;;;;;1.50;0.93;;;19.60;98.20;;;;;;5019874;28;20456;-80
2021/08/13 01:57:38;;;;;;;1.50;0.90;;;19.50;98.20;;;;;;5008523;28;20486;-80
2021/08/13 02:00:07;;;;;;;1.50;0.90;;;19.50;98.20;;;;;;5013672;28;21049;-81
2021/08/13 02:02:35;;;;;;;1.50;0.90;;;19.50;98.20;;;;;;4997491;28;20479;-80
2021/08/13 02:05:05;;;;;;;1.50;1.00;;;19.50;98.20;;;;;;5021410;28;20478;-80
2021/08/13 02:07:36;;;;;;;1.50;1.00;;;19.50;98.20;;;;;;5010407;28;20543;-81
2021/08/13 02:10:03;;;;;;;1.50;0.90;;;19.50;98.20;;;;;;5023835;28;20538;-80
2021/08/13 02:12:30;;;;;;;1.50;0.90;;;19.50;98.20;;;;;;5011245;28;20491;-80
2021/08/13 02:14:56;;;;;;;1.50;0.90;;;19.50;98.20;;;;;;5025961;28;20459;-80
2021/08/13 02:17:24;;;;;;;1.50;1.00;;;19.50;98.20;;;;;;5009613;28;20488;-81
2021/08/13 02:19:58;;;;;;;1.50;0.90;;;19.40;98.20;;;;;;5022799;28;20487;-81
2021/08/13 02:22:26;;;;;;;1.50;1.00;;;19.40;98.20;;;;;;5008557;28;20547;-81
2021/08/13 02:24:53;;;;;;;1.50;1.00;;;19.40;98.20;;;;;;5026378;28;20461;-80
2021/08/13 02:27:20;;;;;;;1.50;0.90;;;19.40;98.20;;;;;;5012019;28;20483;-81
2021/08/13 02:29:47;;;;;;;1.50;0.90;;;19.40;98.20;;;;;;5027272;28;20456;-81
2021/08/13 02:32:13;;;;;;;1.50;0.90;;;19.40;98.20;;;;;;5010299;28;20965;-81
2021/08/13 02:34:40;;;;;;;1.50;1.00;;;19.40;98.20;;;;;;5017219;28;20828;-82
2021/08/13 02:37:14;;;;;;;1.50;1.00;;;19.40;98.20;;;;;;5009264;28;20493;-79
2021/08/13 02:39:48;;;;;;;1.50;1.00;;;19.30;98.20;;;;;;5014663;28;20490;-80
2021/08/13 02:42:21;;;;;;;1.50;0.90;;;19.30;98.20;;;;;;4988305;28;20484;-80
2021/08/13 02:44:54;;;;;;;1.50;0.90;;;19.30;98.20;;;;;;5019116;28;20486;-80
2021/08/13 02:47:24;;;;;;;1.50;0.93;;;19.30;98.20;;;;;;5009006;28;20479;-80
2021/08/13 02:50:00;;;;;;;1.50;1.00;;;19.30;98.20;;;;;;5020465;28;20464;-80
2021/08/13 02:52:34;;;;;;;1.50;0.90;;;19.30;98.20;;;;;;5004524;28;20485;-81
2021/08/13 02:55:05;;;;;;;1.50;0.90;;;19.20;98.20;;;;;;5017167;28;20464;-80
2021/08/13 02:57:37;;;;;;;1.50;0.90;;;19.20;98.20;;;;;;5002846;28;20512;-80
2021/08/13 03:00:06;;;;;;;1.50;0.90;;;19.20;98.20;;;;;;5027321;28;20479;-81
2021/08/13 03:02:35;;;;;;;1.50;0.90;;;19.20;98.20;;;;;;5013087;28;20475;-80
2021/08/13 03:05:03;;;;;;;1.50;1.00;;;19.20;98.20;;;;;;5025628;28;20466;-81
2021/08/13 03:07:30;;;;;;;1.53;0.90;;;19.10;98.20;;;;;;5012971;28;20503;-80
2021/08/13 03:09:58;;;;;;;1.50;1.00;;;19.10;98.20;;;;;;5027137;28;20566;-79
2021/08/13 03:12:27;;;;;;;1.50;0.90;;;19.10;98.20;;;;;;5013405;28;20494;-81
2021/08/13 03:14:55;;;;;;;1.50;1.00;;;19.10;98.20;;;;;;5020585;28;20467;-80
2021/08/13 03:17:22;;;;;;;1.50;1.00;;;19.10;98.20;;;;;;4997078;28;20739;-81
2021/08/13 03:19:49;;;;;;;1.50;0.90;;;19.00;98.20;;;;;;5020035;28;20482;-80
2021/08/13 03:22:19;;;;;;;1.50;1.00;;;19.00;98.20;;;;;;5013144;28;20475;-81
2021/08/13 03:24:47;;;;;;;1.50;0.90;;;19.00;98.20;;;;;;5020983;28;21032;-82
2021/08/13 03:27:14;;;;;;;1.50;0.90;;;18.90;98.20;;;;;;5006333;28;20482;-80
2021/08/13 03:29:42;;;;;;;1.53;1.00;;;18.90;98.20;;;;;;5015110;28;20456;-81
2021/08/13 03:32:09;;;;;;;1.50;0.90;;;18.90;98.20;;;;;;5012403;28;20515;-82
2021/08/13 03:34:36;;;;;;;1.50;1.00;;;18.90;98.20;;;;;;5023429;28;21026;-81
2021/08/13 03:37:03;;;;;;;1.50;0.90;;;18.80;98.20;;;;;;5017841;28;20479;-81
2021/08/13 03:39:29;;;;;;;1.50;0.97;;;18.80;98.20;;;;;;5027051;28;20483;-81
2021/08/13 03:41:57;;;;;;;1.50;1.00;;;18.80;98.20;;;;;;4998221;28;20939;-82
2021/08/13 03:44:23;;;;;;;1.50;1.00;;;18.80;98.20;;;;;;5013543;28;20846;-81
2021/08/13 03:46:51;;;;;;;1.50;0.90;;;18.90;98.20;;;;;;5008658;28;20486;-80
2021/08/13 03:49:18;;;;;;;1.50;0.90;;;18.90;98.20;;;;;;5019225;28;20538;-81
2021/08/13 03:51:45;;;;;;;1.50;1.07;;;18.90;98.20;;;;;;5011783;28;21030;-81
2021/08/13 03:54:12;;;;;;;1.50;1.00;;;18.80;98.20;;;;;;5010229;28;20547;-80
2021/08/13 03:56:39;;;;;;;1.53;1.00;;;18.90;98.20;;;;;;5004481;28;20551;-81
2021/08/13 03:59:05;;;;;;;1.50;0.90;;;18.90;98.20;;;;;;5025283;28;20460;-82
2021/08/13 04:01:32;;;;;;;1.50;1.00;;;18.90;98.20;;;;;;5015038;28;20511;-81
2021/08/13 04:04:00;;;;;;;1.50;1.00;;;18.90;98.20;;;;;;5010107;28;20471;-80
2021/08/13 04:06:27;;;;;;;1.50;1.00;;;18.90;98.20;;;;;;5019580;28;20534;-79
2021/08/13 04:08:54;;;;;;;2.00;1.57;;;18.90;98.20;;;;;;5024116;28;20464;-80
2021/08/13 04:11:21;;;;;;;1.50;0.90;;;18.90;98.20;;;;;;5009993;28;20799;-80
2021/08/13 04:13:48;;;;;;;1.50;0.93;;;18.90;98.20;;;;;;5033222;28;20467;-79
2021/08/13 04:16:14;;;;;;;1.50;0.90;;;18.90;98.20;;;;;;5022720;28;20483;-79
2021/08/13 04:18:41;;;;;;;1.53;0.90;;;18.90;98.20;;;;;;5020328;28;20987;-79
2021/08/13 04:21:09;;;;;;;1.50;0.90;;;18.90;98.20;;;;;;5009967;28;20480;-79
2021/08/13 04:23:36;;;;;;;1.50;0.93;;;18.90;98.20;;;;;;5033602;28;20827;-79
2021/08/13 04:26:03;;;;;;;1.60;1.13;;;18.90;98.20;;;;;;5011622;28;20464;-79
2021/08/13 04:28:30;;;;;;;1.50;1.00;;;18.90;98.20;;;;;;5032158;28;20472;-77
2021/08/13 04:30:57;;;;;;;1.50;0.90;;;18.90;98.20;;;;;;5011202;28;20480;-79
2021/08/13 04:33:23;;;;;;;1.53;1.00;;;18.90;98.20;;;;;;5030901;28;20459;-78
2021/08/13 04:35:50;;;;;;;1.50;0.90;;;18.90;98.20;;;;;;5007170;28;20491;-77
2021/08/13 04:38:18;;;;;;;1.50;0.90;;;18.90;98.20;;;;;;5009002;28;20459;-80
2021/08/13 04:40:45;;;;;;;1.50;1.00;;;18.90;98.20;;;;;;5023709;28;20494;-80
2021/08/13 04:43:12;;;;;;;1.50;0.90;;;18.90;98.20;;;;;;4993729;28;20479;-78
2021/08/13 04:45:39;;;;;;;1.50;0.93;;;18.90;98.20;;;;;;5030298;28;20447;-79
2021/08/13 04:48:06;;;;;;;1.50;0.90;;;19.00;98.20;;;;;;5014965;28;20481;-79
2021/08/13 04:50:33;;;;;;;1.50;0.90;;;19.00;98.20;;;;;;5018687;28;20601;-78
2021/08/13 04:53:00;;;;;;;1.50;1.00;;;19.00;98.20;;;;;;5016040;28;20479;-80
2021/08/13 04:55:28;;;;;;;1.50;0.90;;;19.00;98.20;;;;;;5020885;28;20830;-80
2021/08/13 04:57:55;;;;;;;1.50;0.90;;;19.00;98.20;;;;;;5016216;28;20860;-79
2021/08/13 05:00:23;;;;;;;1.53;1.00;;;19.00;98.20;;;;;;5018485;28;20492;-81
2021/08/13 05:02:50;;;;;;;1.50;0.90;;;19.00;98.20;;;;;;5019642;28;20510;-80
2021/08/13 05:05:17;;;;;;;1.50;0.90;;;19.10;98.20;;;;;;5027806;28;20483;-82
2021/08/13 05:07:44;;;;;;;1.50;0.90;;;19.10;98.20;;;;;;5015156;28;20478;-80
2021/08/13 05:10:12;;;;;;;1.50;1.10;;;19.10;98.20;;;;;;5008713;28;20582;-80
2021/08/13 05:12:41;;;;;;;1.70;1.20;;;19.20;98.20;;;;;;5012103;28;20495;-81
2021/08/13 05:15:09;;;;;;;1.50;1.00;;;19.20;98.20;;;;;;5029496;28;20455;-79
2021/08/13 05:17:36;;;;;;;1.50;0.90;;;19.30;98.20;;;;;;4999213;28;20507;-81
2021/08/13 05:20:04;;;;;;;1.50;1.00;;;19.40;98.20;;;;;;5024323;28;20492;-80
2021/08/13 05:22:33;;;;;;;1.50;1.00;;;19.40;98.20;;;;;;4998189;28;20778;-79
2021/08/13 05:25:02;;;;;;;1.50;1.00;;;19.50;98.20;;;;;;5014762;28;20456;-80
2021/08/13 05:27:29;;;;;;;1.50;1.00;;;19.60;98.20;;;;;;4995724;28;20552;-81
2021/08/13 05:29:57;;;;;;;1.50;1.00;;;19.70;98.20;;;;;;5017964;28;20548;-80
2021/08/13 05:32:24;;;;;;;1.50;1.00;;;19.90;98.20;;;;;;5006439;28;21006;-79
2021/08/13 05:34:51;;;;;;;1.50;0.90;;;20.00;98.20;;;;;;5028649;28;20463;-79
2021/08/13 05:37:18;;;;;;;1.50;0.90;;;20.10;98.20;;;;;;5009912;28;21092;-80
2021/08/13 05:39:45;;;;;;;1.50;1.00;;;20.20;98.20;;;;;;5025867;28;20455;-81
2021/08/13 05:42:12;;;;;;;1.50;0.90;;;20.20;98.20;;;;;;5017014;28;20494;-80
2021/08/13 05:44:39;;;;;;;1.53;1.00;;;20.30;98.20;;;;;;5018895;28;20893;-80
2021/08/13 05:47:07;;;;;;;1.50;1.00;;;20.40;98.20;;;;;;5004979;28;21035;-79
2021/08/13 05:49:34;;;;;;;1.50;0.90;;;20.50;98.20;;;;;;5023738;28;20459;-79
2021/08/13 05:52:01;;;;;;;1.53;0.90;;;20.60;98.20;;;;;;5019950;28;20786;-82
2021/08/13 05:54:30;;;;;;;1.50;1.00;;;20.70;98.20;;;;;;5027308;28;20464;-82
2021/08/13 05:56:58;;;;;;;1.50;0.90;;;20.80;98.20;;;;;;5009304;28;20541;-82
2021/08/13 05:59:25;;;;;;;1.50;1.00;;;21.00;98.20;;;;;;5021999;28;20969;-83
2021/08/13 06:01:52;;;;;;;1.50;0.90;;;21.20;98.20;;;;;;5013461;28;20487;-78
2021/08/13 06:04:20;;;;;;;1.50;0.90;;;21.40;98.20;;;;;;5021883;28;20451;-82
2021/08/13 06:06:48;;;;;;;1.53;0.90;;;21.60;98.20;;;;;;5010781;28;20486;-82
2021/08/13 06:09:15;;;;;;;1.50;0.90;;;21.80;98.20;;;;;;5015742;28;20886;-82
2021/08/13 06:11:42;;;;;;;1.50;0.90;;;22.00;98.20;;;;;;5006606;28;20943;-83
2021/08/13 06:14:08;;;;;;;1.50;0.90;;;22.20;98.20;;;;;;5021332;28;20943;-79
2021/08/13 06:16:35;;;;;;;1.50;0.90;;;22.40;98.20;;;;;;5009608;28;20486;-82
2021/08/13 06:19:02;;;;;;;1.50;0.90;;;22.50;98.20;;;;;;5016580;28;20455;-81
2021/08/13 06:21:31;;;;;;;1.50;0.90;;;22.50;98.20;;;;;;5003878;28;20575;-81
2021/08/13 06:23:58;;;;;;;2.07;1.87;;;22.50;98.20;;;;;;5011949;28;20455;-81
2021/08/13 06:26:26;;;;;;;1.53;0.90;;;22.60;98.20;;;;;;5010608;28;20479;-81
2021/08/13 06:28:52;;;;;;;1.50;0.90;;;22.60;98.20;;;;;;5026536;28;20464;-80
2021/08/13 06:31:21;;;;;;;1.53;1.00;;;22.60;98.20;;;;;;5013304;28;20541;-80
2021/08/13 06:33:47;;;;;;;1.50;0.90;;;22.60;98.20;;;;;;5003321;28;20463;-79
2021/08/13 06:36:14;;;;;;;1.50;0.90;;;22.60;98.20;;;;;;5009596;28;20849;-81
2021/08/13 06:38:43;;;;;;;1.50;0.90;;;22.60;98.20;;;;;;5017703;28;20904;-82
2021/08/13 06:41:09;;;;;;;1.50;0.90;;;22.70;98.20;;;;;;5009535;28;20483;-81
2021/08/13 06:43:36;;;;;;;1.50;0.90;;;22.80;98.20;;;;;;5024913;28;20857;-80
2021/08/13 06:46:04;;;;;;;1.50;0.93;;;22.90;98.20;;;;;;5008391;28;20464;-80
2021/08/13 06:48:31;;;;;;;1.50;0.90;;;23.00;98.20;;;;;;5025739;28;20467;-81
2021/08/13 06:50:58;;;;;;;1.50;0.90;;;23.00;98.20;;;;;;5006733;28;20567;-80
2021/08/13 06:53:25;;;;;;;5.03;1.67;;;23.00;98.20;;;;;;5023459;28;20843;-79
2021/08/13 06:55:53;;;;;;;1.50;0.90;;;23.10;98.20;;;;;;5013379;28;20459;-82
2021/08/13 06:58:20;;;;;;;1.50;0.90;;;23.10;98.20;;;;;;5020237;28;20877;-82
2021/08/13 07:00:47;;;;;;;1.50;0.90;;;23.10;98.00;;;;;;5010250;28;20480;-80
2021/08/13 07:03:14;;;;;;;1.50;0.90;;;23.10;98.00;;;;;;5032917;28;20463;-83
2021/08/13 07:05:41;;;;;;;1.50;0.90;;;23.10;97.90;;;;;;5022500;28;20683;-81
2021/08/13 07:08:09;;;;;;;1.53;1.00;;;23.00;98.20;;;;;;5013646;28;20486;-82
2021/08/13 07:10:36;;;;;;;1.50;0.90;;;23.00;98.20;;;;;;5034696;28;20996;-80
2021/08/13 07:13:04;;;;;;;1.50;0.90;;;23.00;98.20;;;;;;5000547;28;20476;-81
2021/08/13 07:15:31;;;;;;;1.50;0.90;;;23.00;98.20;;;;;;5032471;28;20505;-81
2021/08/13 07:17:58;;;;;;;1.50;0.90;;;23.10;98.20;;;;;;5017509;28;20899;-84
2021/08/13 07:20:25;;;;;;;1.50;0.90;;;23.20;98.20;;;;;;5035040;28;20570;-78
2021/08/13 07:22:52;;;;;;;1.50;0.90;;;23.20;98.20;;;;;;5000322;28;20896;-80
2021/08/13 07:25:19;;;;;;;1.50;0.90;;;23.30;97.70;;;;;;5033125;28;20547;-81
2021/08/13 07:27:45;;;;;;;1.50;0.90;;;23.40;97.30;;;;;;5015799;28;20482;-79
2021/08/13 07:30:14;;;;;;;1.50;1.00;;;23.50;97.10;;;;;;5024933;28;21041;-80
2021/08/13 07:32:42;;;;;;;1.50;0.90;;;23.70;96.30;;;;;;5004747;28;20519;-79
2021/08/13 07:35:09;;;;;;;1.50;0.90;;;23.80;95.80;;;;;;5035494;28;20516;-81
2021/08/13 07:37:36;;;;;;;1.50;0.90;;;23.90;95.70;;;;;;5021574;28;20768;-81
2021/08/13 07:40:04;;;;;;;2.07;1.87;;;24.00;95.60;;;;;;5021114;28;20502;-83
2021/08/13 07:42:31;;;;;;;1.57;0.90;;;24.20;94.90;;;;;;5014302;28;20487;-83
2021/08/13 07:44:58;;;;;;;1.50;0.90;;;24.30;94.80;;;;;;5029899;28;20530;-83
2021/08/13 07:47:26;;;;;;;1.53;0.90;;;24.50;94.70;;;;;;5023970;28;20502;-79
2021/08/13 07:49:53;;;;;;;1.80;1.30;;;24.80;94.50;;;;;;5030854;28;20821;-81
2021/08/13 07:52:29;;;;;;;1.50;0.80;;;25.00;93.20;;;;;;5014958;28;20486;-83
2021/08/13 07:54:56;;;;;;;1.53;0.90;;;25.10;92.80;;;;;;5032051;28;20444;-85
2021/08/13 07:57:25;;;;;;;1.57;0.90;;;25.20;92.50;;;;;;5022779;28;20488;-84
2021/08/13 07:59:52;;;;;;;1.50;0.90;;;25.30;91.60;;;;;;5045784;28;20483;-82
2021/08/13 08:02:20;;;;;;;1.53;0.90;;;25.30;91.80;;;;;;5029664;28;20475;-84
2021/08/13 08:04:48;;;;;;;1.50;0.90;;;25.20;91.90;;;;;;5036295;28;20463;-82
2021/08/13 08:07:15;;;;;;;1.50;0.90;;;25.20;92.10;;;;;;5016152;28;20493;-82
2021/08/13 08:09:42;;;;;;;1.50;0.87;;;25.10;92.60;;;;;;5022560;28;20460;-81
2021/08/13 08:12:09;;;;;;;1.50;0.80;;;25.10;92.20;;;;;;5007274;28;20491;-82
2021/08/13 08:14:36;;;;;;;1.50;0.90;;;25.10;92.70;;;;;;5020509;28;21071;-80
2021/08/13 08:17:04;;;;;;;1.60;1.10;;;25.10;93.00;;;;;;5012653;28;20520;-81
2021/08/13 08:19:31;;;;;;;1.50;0.90;;;25.00;93.10;;;;;;5028451;28;20459;-82
2021/08/13 08:22:00;;;;;;;1.50;0.90;;;24.90;93.20;;;;;;5013651;28;20483;-80
2021/08/13 08:24:27;;;;;;;1.50;1.00;;;24.80;93.80;;;;;;5028384;28;20451;-83
2021/08/13 08:26:54;;;;;;;1.50;0.90;;;24.70;94.10;;;;;;5013982;28;20492;-81
2021/08/13 08:29:21;;;;;;;3.60;1.77;;;24.70;94.10;;;;;;5023118;28;20475;-81
2021/08/13 08:31:47;;;;;;;1.50;0.90;;;24.80;94.30;;;;;;5008877;28;20490;-81
2021/08/13 08:34:14;;;;;;;1.50;0.90;;;24.80;94.50;;;;;;5024164;28;20467;-83
2021/08/13 08:36:41;;;;;;;1.50;0.90;;;25.00;94.10;;;;;;5005677;28;20491;-81
2021/08/13 08:39:09;;;;;;;1.50;0.80;;;25.10;93.80;;;;;;5022485;28;20464;-81
2021/08/13 08:41:37;;;;;;;1.53;0.90;;;25.20;92.90;;;;;;4999023;28;20492;-81
2021/08/13 08:44:04;;;;;;;1.90;1.63;;;25.30;92.40;;;;;;5003594;28;20836;-83
2021/08/13 08:46:32;;;;;;;1.53;0.90;;;25.30;92.90;;;;;;5002104;28;20498;-80
2021/08/13 08:49:01;;;;;;;1.50;0.90;;;25.40;92.70;;;;;;5018339;28;20461;-81
2021/08/13 08:51:29;;;;;;;1.53;0.90;;;25.50;92.70;;;;;;5007326;28;20493;-81
2021/08/13 08:53:57;;;;;;;1.70;1.20;;;25.70;92.10;;;;;;5029479;28;20471;-81
2021/08/13 08:56:27;;;;;;;1.50;0.90;;;25.90;91.40;;;;;;5001556;28;20484;-80
2021/08/13 08:58:58;;;;;;;1.50;0.90;;;26.10;90.60;;;;;;5012442;28;20518;-81
2021/08/13 09:01:27;;;;;;;1.57;1.00;;;26.10;90.20;;;;;;5015071;28;20491;-81
2021/08/13 09:03:54;;;;;;;1.50;0.90;;;26.00;89.70;;;;;;5021167;28;20876;-81
2021/08/13 09:06:22;;;;;;;1.50;0.90;;;26.00;89.40;;;;;;5006188;28;20480;-81
2021/08/13 09:08:49;;;;;;;1.53;0.90;;;25.90;89.40;;;;;;5007839;28;20566;-82
2021/08/13 09:11:18;;;;;;;1.50;0.90;;;25.80;90.20;;;;;;5005455;28;20488;-82
2021/08/13 09:14:01;;;;;;;1.50;1.00;;;25.60;90.50;;;;;;4999141;28;20474;-79
2021/08/13 09:16:29;;;;;;;1.50;0.90;;;25.60;90.70;;;;;;5004451;28;20479;-83
2021/08/13 09:19:00;;;;;;;1.50;0.90;;;25.80;90.70;;;;;;5022954;28;20463;-84
2021/08/13 09:21:27;;;;;;;1.50;0.90;;;26.00;90.20;;;;;;5008047;28;20500;-84
2021/08/13 09:23:59;;;;;;;1.60;0.90;;;26.20;89.20;;;;;;5005022;28;20467;-84
2021/08/13 09:26:27;;;;;;;1.50;0.90;;;26.30;88.50;;;;;;5005090;28;20495;-82
2021/08/13 09:28:56;;;;;;;1.53;0.90;;;26.30;88.50;;;;;;5016333;28;20475;-81
2021/08/13 09:31:27;;;;;;;1.50;0.90;;;26.40;88.30;;;;;;5016012;28;20487;-80
2021/08/13 09:33:55;;;;;;;1.50;0.90;;;26.40;87.80;;;;;;5013201;28;20483;-80
2021/08/13 09:36:24;;;;;;;1.50;0.90;;;26.40;87.30;;;;;;5006428;28;20540;-82
2021/08/13 09:39:01;;;;;;;1.50;0.90;;;26.40;88.30;;;;;;5018602;28;20455;-82
2021/08/13 09:41:28;;;;;;;1.50;0.80;;;26.50;88.20;;;;;;4998299;28;20479;-81
2021/08/13 09:44:00;;;;;;;1.50;0.80;;;26.60;87.40;;;;;;5012544;28;20492;-80
2021/08/13 09:46:30;;;;;;;1.53;0.90;;;26.70;87.00;;;;;;5000882;28;20897;-79
2021/08/13 09:49:12;;;;;;;1.50;0.90;;;26.80;86.60;;;;;;5005322;28;20467;-80
2021/08/13 09:51:39;;;;;;;1.50;1.00;;;27.00;85.70;;;;;;4993703;28;20481;-81
2021/08/13 09:54:07;;;;;;;1.50;0.80;;;27.10;84.60;;;;;;5004048;28;20958;-80
2021/08/13 09:56:36;;;;;;;1.50;0.83;;;27.20;83.40;;;;;;5012871;28;20471;-79
2021/08/13 09:59:11;;;;;;;1.50;0.90;;;27.30;83.10;;;;;;5020777;28;20478;-79
2021/08/13 10:01:41;;;;;;;1.60;1.10;;;27.40;83.90;;;;;;5006717;28;20483;-79
2021/08/13 10:04:08;;;;;;;1.50;0.90;;;27.60;82.70;;;;;;5006951;28;20467;-79
2021/08/13 10:06:36;;;;;;;1.50;0.90;;;27.80;83.40;;;;;;5011090;28;20480;-79
2021/08/13 10:09:04;;;;;;;1.60;1.27;;;28.00;84.20;;;;;;5015696;28;20462;-79
2021/08/13 10:11:34;;;;;;;1.50;0.90;;;28.20;82.50;;;;;;5007816;28;20531;-79
2021/08/13 10:14:00;;;;;;;1.50;0.80;;;28.20;81.30;;;;;;5005278;28;20463;-79
2021/08/13 10:16:28;;;;;;;1.50;0.90;;;28.30;81.10;;;;;;5008256;28;20502;-79
2021/08/13 10:18:58;;;;;;;1.50;0.90;;;28.30;80.10;;;;;;5014700;28;20557;-79
2021/08/13 10:21:26;;;;;;;1.50;0.80;;;28.30;80.40;;;;;;5015540;28;20573;-79
2021/08/13 10:23:55;;;;;;;1.50;0.80;;;28.30;79.80;;;;;;5016022;28;20464;-79
2021/08/13 10:26:25;;;;;;;1.50;0.90;;;28.30;80.30;;;;;;5003241;28;20979;-80
2021/08/13 10:28:53;;;;;;;1.47;0.80;;;28.30;80.50;;;;;;5015340;28;20467;-80
2021/08/13 10:31:21;;;;;;;1.50;0.80;;;28.40;79.80;;;;;;5002729;28;20593;-79
2021/08/13 10:33:49;;;;;;;1.50;0.80;;;28.50;79.10;;;;;;5015635;28;20566;-78
2021/08/13 10:36:19;;;;;;;1.50;0.80;;;28.70;79.30;;;;;;5004415;28;20478;-79
2021/08/13 10:38:49;;;;;;;1.50;0.90;;;28.70;78.00;;;;;;5011344;28;20467;-79
2021/08/13 10:41:20;;;;;;;1.50;0.80;;;28.70;78.50;;;;;;5012795;28;20538;-80
2021/08/13 10:43:47;;;;;;;1.50;1.00;;;28.70;78.90;;;;;;4992354;28;20510;-79
2021/08/13 10:46:15;;;;;;;1.50;0.80;;;28.80;79.10;;;;;;5017673;28;21286;-79
2021/08/13 10:48:45;;;;;;;1.50;0.90;;;29.00;79.00;;;;;;5024321;28;20485;-79
2021/08/13 10:51:12;;;;;;;1.50;0.90;;;29.10;78.10;;;;;;5007281;28;20482;-79
2021/08/13 10:53:40;;;;;;;1.50;0.80;;;29.00;78.40;;;;;;5020183;28;20467;-79
2021/08/13 10:56:09;;;;;;;1.43;0.80;;;29.00;78.20;;;;;;5006763;28;20479;-81
2021/08/13 10:58:50;;;;;;;1.50;0.80;;;29.00;78.20;;;;;;5011139;28;20494;-79
2021/08/13 11:01:18;;;;;;;1.50;0.90;;;29.10;77.30;;;;;;4995805;28;20482;-78
2021/08/13 11:04:06;;;;;;;1.50;0.80;;;29.10;76.70;;;;;;5018321;28;20505;-80
2021/08/13 11:06:42;;;;;;;1.47;0.80;;;29.10;76.50;;;;;;5009311;28;20493;-79
2021/08/13 11:09:11;;;;;;;1.50;0.80;;;29.20;76.50;;;;;;5011361;28;21014;-78
2021/08/13 11:12:06;;;;;;;1.50;0.80;;;29.30;76.80;;;;;;5003239;28;20501;-78
2021/08/13 11:14:34;;;;;;;1.50;0.80;;;29.60;75.80;;;;;;5013121;28;20466;-77
2021/08/13 11:17:01;;;;;;;1.50;0.80;;;29.80;75.70;;;;;;4995316;28;20491;-78
2021/08/13 11:19:29;;;;;;;1.50;0.80;;;29.80;75.40;;;;;;5010360;28;20463;-78
2021/08/13 11:21:58;;;;;;;1.50;0.83;;;29.90;74.40;;;;;;5000028;28;20479;-80
2021/08/13 11:24:45;;;;;;;1.50;0.80;;;29.70;74.60;;;;;;5012314;28;20502;-79
2021/08/13 11:27:12;;;;;;;1.50;0.80;;;29.70;75.00;;;;;;5002504;28;20502;-80
2021/08/13 11:29:44;;;;;;;1.50;0.80;;;29.90;75.50;;;;;;5016011;28;20463;-80
2021/08/13 11:32:26;;;;;;;1.50;0.80;;;30.00;74.80;;;;;;5000824;28;20491;-81
2021/08/13 11:34:58;;;;;;;1.50;0.80;;;30.00;74.40;;;;;;5021595;28;20549;-81
2021/08/13 11:37:47;;;;;;;1.50;0.90;;;30.00;74.70;;;;;;5007355;28;20499;-80
2021/08/13 11:40:49;;;;;;;1.50;0.90;;;30.00;74.50;;;;;;5018970;28;20982;-78
2021/08/13 11:43:17;;;;;;;1.47;0.80;;;29.90;74.90;;;;;;4988514;28;20491;-78
2021/08/13 11:45:47;;;;;;;1.43;0.80;;;29.90;75.20;;;;;;5013331;28;20471;-79
2021/08/13 11:48:15;;;;;;;1.50;0.80;;;29.90;75.30;;;;;;4990307;28;20470;-80
2021/08/13 11:50:43;;;;;;;1.50;0.80;;;29.80;74.90;;;;;;5015924;28;20518;-79
2021/08/13 11:53:10;;;;;;;1.50;0.80;;;29.60;75.30;;;;;;4990169;28;20487;-83
2021/08/13 11:55:38;;;;;;;1.50;0.90;;;29.50;75.30;;;;;;5018679;28;20458;-78
2021/08/13 11:58:08;;;;;;;1.47;0.80;;;29.30;75.40;;;;;;5002044;28;20522;-79
2021/08/13 12:00:37;;;;;;;1.47;0.80;;;29.30;76.30;;;;;;5026129;28;20485;-81
2021/08/13 12:03:06;;;;;;;1.50;0.80;;;29.60;75.60;;;;;;4992189;28;20471;-78
2021/08/13 12:05:34;;;;;;;1.47;0.80;;;29.50;75.10;;;;;;5024953;28;20485;-79
2021/08/13 12:08:02;;;;;;;1.47;0.80;;;29.60;74.70;;;;;;5009183;28;20566;-79
2021/08/13 12:10:30;;;;;;;1.47;0.80;;;29.70;75.00;;;;;;5022247;28;20562;-80
2021/08/13 12:13:07;;;;;;;1.50;0.90;;;29.80;75.10;;;;;;5006474;28;20495;-80
2021/08/13 12:15:35;;;;;;;1.47;0.80;;;29.90;75.10;;;;;;5011778;28;20938;-77
2021/08/13 12:18:03;;;;;;;1.47;0.80;;;30.00;74.40;;;;;;5000462;28;20480;-78
2021/08/13 12:20:31;;;;;;;1.47;0.87;;;30.30;75.70;;;;;;5024645;28;20938;-80
2021/08/13 12:23:03;;;;;;;1.50;0.80;;;30.60;75.20;;;;;;5009969;28;21118;-78
2021/08/13 12:25:36;;;;;;;1.50;0.80;;;30.80;72.50;;;;;;5014924;28;20462;-78
2021/08/13 12:28:04;;;;;;;1.43;0.80;;;30.90;72.80;;;;;;5008827;28;20475;-77
2021/08/13 12:30:33;;;;;;;1.50;0.80;;;30.90;71.90;;;;;;5014405;28;20530;-77
2021/08/13 12:33:00;;;;;;;1.47;0.80;;;30.70;72.80;;;;;;4996184;28;20483;-76
2021/08/13 12:35:37;;;;;;;1.50;0.80;;;30.40;72.20;;;;;;5014748;28;20467;-77
2021/08/13 12:38:04;;;;;;;1.50;0.80;;;30.40;73.00;;;;;;5004005;28;20494;-77
2021/08/13 12:40:39;;;;;;;1.50;0.80;;;30.30;73.00;;;;;;5012639;28;20503;-77
2021/08/13 12:43:06;;;;;;;1.47;0.80;;;30.20;73.80;;;;;;5006251;28;20474;-77
2021/08/13 12:45:34;;;;;;;1.50;0.80;;;30.30;73.30;;;;;;5017756;28;20973;-77
2021/08/13 12:48:01;;;;;;;1.40;0.90;;;30.40;73.00;;;;;;5007550;28;20482;-77
2021/08/13 12:50:28;;;;;;;1.47;0.80;;;30.30;71.60;;;;;;5016382;28;20505;-76
2021/08/13 12:53:07;;;;;;;1.50;0.80;;;30.50;73.20;;;;;;5005734;28;20486;-77
2021/08/13 12:55:43;;;;;;;1.47;0.80;;;30.60;72.40;;;;;;5012594;28;20466;-76